KAQW/AQW METAR and TAF weather

Enter ICAO airport designator
Station Type Date Time Source
KAQW METAR 2021/09/25 02:52 UTC NOAA

KAQW 250252Z AUTO 00000KT 10SM CLR 12/10 A3008 RMK AO2 SLP186 T01170100 50004


Station Type Date Time Source
KAQW Decoded METAR 2021/09/25 02:52 UTC NOAA

N ADAMS HARRIMAN-AND-WEST, MA, United States (KAQW) 42-42N 073-10W 201M
Sep 24, 2021 - 10:52 PM EDT / 2021.09.25 0252 UTC
Wind: Calm:0
Visibility: 10 mile(s):0
Sky conditions: clear
Temperature: 53.1 F (11.7 C)
Dew Point: 50.0 F (10.0 C)
Relative Humidity: 89%
Pressure (altimeter): 30.08 in. Hg (1018 hPa)
Pressure tendency: 0.01 inches (0.4 hPa) higher than three hours ago
ob: KAQW 250252Z AUTO 00000KT 10SM CLR 12/10 A3008 RMK AO2 SLP186 T01170100 50004
cycle: 3

Station Type Date Time Source
KAQW TAF UTC NOAA

Error!

Example: see airport list